Time;durP1;ratioP1;P1;durP2;ratioP2;P2;SDS_P1;SDS_P2;PMS_P1;PMS_P2;Temp;Humidity;BMP_temperature;BMP_pressure;BME280_temperature;BME280_humidity;BME280_pressure;Samples;Min_cycle;Max_cycle;Signal;HPM_P1;HPM_P2
2021/08/06 00:01:28;;;;;;;6.10;4.25;;;20.10;85.20;;;;;;4826987;29;20102;-90
2021/08/06 00:03:58;;;;;;;5.95;4.68;;;20.00;84.60;;;;;;4827523;29;20061;-90
2021/08/06 00:06:27;;;;;;;7.25;4.75;;;19.90;83.40;;;;;;4827491;29;20050;-91
2021/08/06 00:08:55;;;;;;;5.53;4.18;;;19.90;83.90;;;;;;4827164;29;20073;-91
2021/08/06 00:11:29;;;;;;;5.25;3.85;;;19.80;84.60;;;;;;4827391;29;20054;-90
2021/08/06 00:13:55;;;;;;;7.65;4.57;;;19.80;84.80;;;;;;4827178;29;20054;-90
2021/08/06 00:16:22;;;;;;;8.23;5.50;;;19.80;85.00;;;;;;4826479;29;20609;-91
2021/08/06 00:18:48;;;;;;;7.35;4.50;;;19.70;84.10;;;;;;4827497;29;20098;-90
2021/08/06 00:21:14;;;;;;;6.43;3.88;;;19.70;84.90;;;;;;4827138;29;20051;-90
2021/08/06 00:23:40;;;;;;;5.93;4.60;;;19.70;85.00;;;;;;4826600;29;20102;-90
2021/08/06 00:26:06;;;;;;;6.00;4.47;;;19.60;85.00;;;;;;4827297;29;20051;-90
2021/08/06 00:28:32;;;;;;;6.25;4.60;;;19.60;84.90;;;;;;4827216;29;20054;-90
2021/08/06 00:30:57;;;;;;;6.35;4.40;;;19.50;84.60;;;;;;4826737;29;20080;-90
2021/08/06 00:33:23;;;;;;;6.70;4.63;;;19.50;85.00;;;;;;4827261;29;20527;-91
2021/08/06 00:35:48;;;;;;;5.47;4.35;;;19.50;85.10;;;;;;4826083;29;20110;-89
2021/08/06 00:38:14;;;;;;;5.70;4.25;;;19.40;85.20;;;;;;4825571;29;20526;-91
2021/08/06 00:40:40;;;;;;;5.82;4.55;;;19.40;85.00;;;;;;4827019;29;20057;-91
2021/08/06 00:43:05;;;;;;;7.00;4.85;;;19.40;85.00;;;;;;4826360;29;20182;-89
2021/08/06 00:45:31;;;;;;;6.43;4.72;;;19.30;84.80;;;;;;4826894;29;20178;-89
2021/08/06 00:47:57;;;;;;;6.00;4.63;;;19.30;85.40;;;;;;4826875;29;20065;-89
2021/08/06 00:50:23;;;;;;;7.93;5.20;;;19.20;85.80;;;;;;4826051;29;20060;-89
2021/08/06 00:52:49;;;;;;;5.93;4.90;;;19.20;85.60;;;;;;4826938;29;20058;-90
2021/08/06 00:55:16;;;;;;;5.60;4.70;;;19.20;85.70;;;;;;4826756;29;20054;-91
2021/08/06 00:57:42;;;;;;;6.07;5.22;;;19.20;86.00;;;;;;4826213;29;20065;-91
2021/08/06 01:00:08;;;;;;;7.82;5.03;;;19.10;85.60;;;;;;4826705;29;20050;-90
2021/08/06 01:02:53;;;;;;;7.65;4.93;;;19.10;86.10;;;;;;4826777;29;20110;-90
2021/08/06 01:05:34;;;;;;;6.35;5.00;;;19.10;86.30;;;;;;4825983;29;20058;-91
2021/08/06 01:08:17;;;;;;;8.25;5.80;;;19.00;86.50;;;;;;4826802;29;20054;-90
2021/08/06 01:11:01;;;;;;;7.28;5.00;;;18.90;85.30;;;;;;4826555;29;20062;-90
2021/08/06 01:13:44;;;;;;;6.32;5.13;;;18.90;85.70;;;;;;4826398;29;20417;-91
2021/08/06 01:16:11;;;;;;;6.72;4.95;;;18.90;86.10;;;;;;4826763;29;20072;-90
2021/08/06 01:18:42;;;;;;;9.00;6.13;;;18.90;86.70;;;;;;4825449;29;20054;-91
2021/08/06 01:21:14;;;;;;;6.82;5.85;;;18.80;85.80;;;;;;4826314;29;20055;-90
2021/08/06 01:23:41;;;;;;;8.23;5.00;;;18.80;86.30;;;;;;4826500;29;20058;-89
2021/08/06 01:26:21;;;;;;;6.38;5.22;;;18.70;86.40;;;;;;4825613;29;20064;-90
2021/08/06 01:28:48;;;;;;;9.02;5.43;;;18.80;87.60;;;;;;4826213;29;20066;-90
2021/08/06 01:31:21;;;;;;;7.50;5.40;;;18.70;87.10;;;;;;4826484;29;20409;-89
2021/08/06 01:33:47;;;;;;;6.57;5.63;;;18.70;86.60;;;;;;4825493;29;20058;-89
2021/08/06 01:36:13;;;;;;;6.82;5.57;;;18.60;87.00;;;;;;4826345;29;20065;-90
2021/08/06 01:38:38;;;;;;;6.93;5.60;;;18.60;87.00;;;;;;4833559;29;20122;-90
2021/08/06 01:41:20;;;;;;;7.40;5.45;;;18.60;87.20;;;;;;4830369;29;20059;-89
2021/08/06 01:44:06;;;;;;;6.68;5.60;;;18.50;86.90;;;;;;4830053;29;20054;-90
2021/08/06 01:46:55;;;;;;;7.40;5.25;;;18.50;87.00;;;;;;4830809;29;20069;-90
2021/08/06 01:49:31;;;;;;;6.60;5.28;;;18.50;86.90;;;;;;4827615;29;20073;-91
2021/08/06 01:52:04;;;;;;;7.00;6.05;;;18.40;86.70;;;;;;4826083;29;20058;-89
2021/08/06 01:54:32;;;;;;;7.90;6.40;;;18.40;87.20;;;;;;4829216;29;20062;-89
2021/08/06 01:56:59;;;;;;;7.28;5.28;;;18.40;86.70;;;;;;4830975;29;20050;-90
2021/08/06 01:59:27;;;;;;;7.10;5.93;;;18.30;86.70;;;;;;4827109;29;20073;-90
2021/08/06 02:01:54;;;;;;;7.50;6.00;;;18.30;86.70;;;;;;4825254;29;20058;-89
2021/08/06 02:04:19;;;;;;;7.88;5.68;;;18.30;87.20;;;;;;4825946;29;20055;-89
2021/08/06 02:06:45;;;;;;;7.40;5.78;;;18.20;87.40;;;;;;4825835;29;20051;-90
2021/08/06 02:09:18;;;;;;;6.85;5.18;;;18.20;87.50;;;;;;4825463;29;20054;-91
2021/08/06 02:11:46;;;;;;;6.43;5.20;;;18.20;87.50;;;;;;4825892;29;20568;-90
2021/08/06 02:14:14;;;;;;;7.63;6.50;;;18.20;87.20;;;;;;4825972;29;20054;-90
2021/08/06 02:16:42;;;;;;;6.72;5.70;;;18.20;86.90;;;;;;4825306;29;20514;-90
2021/08/06 02:19:11;;;;;;;8.52;6.25;;;18.10;87.30;;;;;;4825774;29;20055;-89
2021/08/06 02:21:39;;;;;;;6.95;6.07;;;18.10;87.50;;;;;;4825115;29;20110;-89
2021/08/06 02:24:07;;;;;;;7.70;6.65;;;18.10;87.80;;;;;;4825740;29;20411;-90
2021/08/06 02:26:36;;;;;;;6.93;5.60;;;18.10;87.70;;;;;;4825430;29;20069;-90
2021/08/06 02:29:05;;;;;;;7.03;5.68;;;18.00;88.00;;;;;;4824637;29;20423;-89
2021/08/06 02:31:32;;;;;;;8.02;5.55;;;18.00;88.10;;;;;;4825702;29;20061;-90
2021/08/06 02:33:59;;;;;;;6.97;5.72;;;18.00;88.00;;;;;;4825561;29;20050;-89
2021/08/06 02:36:24;;;;;;;9.23;6.85;;;18.00;88.10;;;;;;4825142;29;20054;-90
2021/08/06 02:38:51;;;;;;;9.60;7.50;;;18.00;87.50;;;;;;4825484;29;20397;-89
2021/08/06 02:41:19;;;;;;;7.78;6.15;;;18.00;87.20;;;;;;4825022;29;20059;-89
2021/08/06 02:43:44;;;;;;;8.32;5.70;;;18.00;86.90;;;;;;4824612;29;20492;-89
2021/08/06 02:46:10;;;;;;;7.70;6.43;;;18.00;87.50;;;;;;4825195;29;20058;-90
2021/08/06 02:48:36;;;;;;;7.50;5.88;;;18.00;87.50;;;;;;4825423;29;20058;-90
2021/08/06 02:51:01;;;;;;;7.47;5.90;;;18.00;87.90;;;;;;4824194;29;20457;-89
2021/08/06 02:53:27;;;;;;;7.05;5.88;;;18.00;88.10;;;;;;4825141;29;20084;-89
2021/08/06 02:55:53;;;;;;;7.30;5.97;;;18.00;88.00;;;;;;4825226;29;20058;-90
2021/08/06 02:58:20;;;;;;;9.55;6.85;;;18.00;88.30;;;;;;4824484;29;20064;-90
2021/08/06 03:00:47;;;;;;;7.03;5.85;;;17.90;87.90;;;;;;4825349;29;20058;-89
2021/08/06 03:03:13;;;;;;;9.85;6.93;;;17.90;88.30;;;;;;4827591;29;20512;-90
2021/08/06 03:05:39;;;;;;;6.80;5.47;;;17.90;87.50;;;;;;4827296;29;20066;-89
2021/08/06 03:08:05;;;;;;;6.82;5.57;;;17.90;87.30;;;;;;4828232;29;20492;-90
2021/08/06 03:10:30;;;;;;;7.72;5.88;;;17.90;87.60;;;;;;4827765;29;20480;-90
2021/08/06 03:12:56;;;;;;;7.80;6.60;;;17.90;87.80;;;;;;4827942;29;20138;-89
2021/08/06 03:15:22;;;;;;;6.85;5.75;;;17.80;87.60;;;;;;4827857;29;20153;-89
2021/08/06 03:17:47;;;;;;;7.20;5.65;;;17.90;87.90;;;;;;4827513;29;20061;-90
2021/08/06 03:20:16;;;;;;;8.75;6.40;;;17.90;87.90;;;;;;4828266;29;20057;-89
2021/08/06 03:22:42;;;;;;;7.50;6.43;;;17.80;88.00;;;;;;4827675;29;20099;-90
2021/08/06 03:25:09;;;;;;;8.05;6.32;;;17.80;88.10;;;;;;4826919;29;20051;-90
2021/08/06 03:27:36;;;;;;;7.88;6.20;;;17.80;88.10;;;;;;4827881;29;20062;-90
2021/08/06 03:30:06;;;;;;;7.95;6.68;;;17.80;88.00;;;;;;4827909;29;20129;-90
2021/08/06 03:32:32;;;;;;;7.43;5.88;;;17.70;88.10;;;;;;4827508;29;20064;-89
2021/08/06 03:35:00;;;;;;;8.52;6.80;;;17.70;88.20;;;;;;4827703;29;20051;-89
2021/08/06 03:37:26;;;;;;;8.38;6.10;;;17.70;88.20;;;;;;4827727;29;20118;-89
2021/08/06 03:39:52;;;;;;;7.57;6.57;;;17.70;88.10;;;;;;4826684;29;20054;-90
2021/08/06 03:42:18;;;;;;;8.00;6.22;;;17.70;88.00;;;;;;4827606;29;20089;-90
2021/08/06 03:44:44;;;;;;;7.60;6.45;;;17.70;88.00;;;;;;4827801;29;20055;-89
2021/08/06 03:47:09;;;;;;;9.57;7.47;;;17.60;87.70;;;;;;4827004;29;20054;-90
2021/08/06 03:49:35;;;;;;;7.10;5.82;;;17.70;88.20;;;;;;4827944;29;20102;-89
2021/08/06 03:52:01;;;;;;;8.68;7.00;;;17.70;88.40;;;;;;4827471;29;20057;-90
2021/08/06 03:54:26;;;;;;;8.73;6.15;;;17.60;88.40;;;;;;4826542;29;20074;-89
2021/08/06 03:56:52;;;;;;;10.02;7.28;;;17.60;88.60;;;;;;4827459;29;20058;-90
2021/08/06 03:59:17;;;;;;;8.90;6.10;;;17.60;88.50;;;;;;4827461;29;20057;-90
2021/08/06 04:01:43;;;;;;;7.93;6.25;;;17.60;88.30;;;;;;4826602;29;20053;-89
2021/08/06 04:04:09;;;;;;;8.05;5.82;;;17.60;88.50;;;;;;4827435;29;20061;-90
2021/08/06 04:06:35;;;;;;;10.38;7.40;;;17.60;88.50;;;;;;4827316;29;20055;-90
2021/08/06 04:09:00;;;;;;;7.97;6.20;;;17.60;88.40;;;;;;4826785;29;20058;-90
2021/08/06 04:11:26;;;;;;;9.65;8.07;;;17.60;88.60;;;;;;4827294;29;20057;-90
2021/08/06 04:13:52;;;;;;;7.78;6.22;;;17.60;88.60;;;;;;4826258;29;20519;-90
2021/08/06 04:16:18;;;;;;;7.72;6.13;;;17.60;88.70;;;;;;4827209;29;20062;-89
2021/08/06 04:18:44;;;;;;;8.48;6.75;;;17.60;88.70;;;;;;4826903;29;20097;-90
2021/08/06 04:21:10;;;;;;;7.93;6.25;;;17.60;89.00;;;;;;4826108;29;20061;-90
2021/08/06 04:23:36;;;;;;;7.70;6.20;;;17.60;89.00;;;;;;4826881;29;20110;-89
2021/08/06 04:26:02;;;;;;;7.43;6.45;;;17.60;88.90;;;;;;4827079;29;20050;-89
2021/08/06 04:28:31;;;;;;;9.00;6.93;;;17.60;88.60;;;;;;4826159;29;20141;-90
2021/08/06 04:31:02;;;;;;;8.15;6.50;;;17.60;89.00;;;;;;4826859;29;20137;-89
2021/08/06 04:33:28;;;;;;;9.15;6.95;;;17.60;89.00;;;;;;4827049;29;20074;-90
2021/08/06 04:35:54;;;;;;;10.30;7.20;;;17.60;89.20;;;;;;4825976;29;20051;-88
2021/08/06 04:38:19;;;;;;;9.32;7.93;;;17.60;89.20;;;;;;4826453;29;20066;-90
2021/08/06 04:40:45;;;;;;;10.25;7.45;;;17.60;89.50;;;;;;4826751;29;20491;-90
2021/08/06 04:43:12;;;;;;;9.77;6.70;;;17.60;89.50;;;;;;4826031;29;20458;-89
2021/08/06 04:45:38;;;;;;;9.35;7.03;;;17.60;89.20;;;;;;4827066;29;20054;-89
2021/08/06 04:48:04;;;;;;;8.98;6.95;;;17.50;89.00;;;;;;4826553;29;20054;-90
2021/08/06 04:50:31;;;;;;;12.88;8.02;;;17.50;89.00;;;;;;4825938;29;20054;-89
2021/08/06 04:52:57;;;;;;;8.68;6.93;;;17.50;90.00;;;;;;4826777;29;20086;-89
2021/08/06 04:55:24;;;;;;;9.68;7.75;;;17.50;90.10;;;;;;4826541;29;20054;-89
2021/08/06 04:57:51;;;;;;;9.60;8.13;;;17.50;90.40;;;;;;4826044;29;20416;-89
2021/08/06 05:00:18;;;;;;;8.95;7.05;;;17.50;90.50;;;;;;4826519;29;20070;-89
2021/08/06 05:02:45;;;;;;;11.18;7.68;;;17.50;90.10;;;;;;4826471;29;20515;-89
2021/08/06 05:05:11;;;;;;;8.20;6.47;;;17.50;90.00;;;;;;4825462;29;20111;-89
2021/08/06 05:07:36;;;;;;;7.95;6.40;;;17.50;90.00;;;;;;4826362;29;20065;-90
2021/08/06 05:10:03;;;;;;;11.50;7.40;;;17.50;89.80;;;;;;4826366;29;20050;-89
2021/08/06 05:12:29;;;;;;;12.85;7.53;;;17.50;90.20;;;;;;4825903;29;20080;-89
2021/08/06 05:14:55;;;;;;;9.88;7.07;;;17.50;90.20;;;;;;4826214;29;20117;-89
2021/08/06 05:17:21;;;;;;;9.20;7.40;;;17.50;90.30;;;;;;4825676;29;20507;-89
2021/08/06 05:19:46;;;;;;;9.38;7.05;;;17.50;90.40;;;;;;4825855;29;20065;-89
2021/08/06 05:22:12;;;;;;;10.43;7.93;;;17.50;90.40;;;;;;4826207;29;20453;-89
2021/08/06 05:24:38;;;;;;;9.27;7.15;;;17.60;91.00;;;;;;4824996;29;20062;-90
2021/08/06 05:27:04;;;;;;;9.88;6.70;;;17.60;90.70;;;;;;4826249;29;20058;-88
2021/08/06 05:29:31;;;;;;;9.50;7.18;;;17.50;90.70;;;;;;4826093;29;20050;-89
2021/08/06 05:31:57;;;;;;;9.82;7.35;;;17.50;91.20;;;;;;4825377;29;20514;-89
2021/08/06 05:34:22;;;;;;;12.07;7.53;;;17.50;90.80;;;;;;4826158;29;20062;-89
2021/08/06 05:36:48;;;;;;;8.05;6.60;;;17.60;90.90;;;;;;4826258;29;20089;-89
2021/08/06 05:39:14;;;;;;;9.88;6.80;;;17.60;90.90;;;;;;4825244;29;20145;-88
2021/08/06 05:41:39;;;;;;;9.02;7.40;;;17.60;90.90;;;;;;4825671;29;20061;-89
2021/08/06 05:44:05;;;;;;;9.77;6.85;;;17.60;91.00;;;;;;4825742;29;20115;-88
2021/08/06 05:46:31;;;;;;;8.38;6.60;;;17.60;91.10;;;;;;4824970;29;20046;-88
2021/08/06 05:48:57;;;;;;;9.93;7.13;;;17.60;90.90;;;;;;4825759;29;20055;-87
2021/08/06 05:51:22;;;;;;;8.50;6.63;;;17.60;91.10;;;;;;4825803;29;20219;-88
2021/08/06 05:53:48;;;;;;;11.52;7.38;;;17.60;91.00;;;;;;4824985;29;20054;-88
2021/08/06 05:56:14;;;;;;;7.93;6.25;;;17.60;91.20;;;;;;4825737;29;20051;-88
2021/08/06 05:58:41;;;;;;;8.32;6.10;;;17.70;91.10;;;;;;4825549;29;20058;-88
2021/08/06 06:01:08;;;;;;;11.20;6.78;;;17.70;91.00;;;;;;4824754;29;20054;-87
2021/08/06 06:03:33;;;;;;;9.38;6.50;;;17.70;91.20;;;;;;4825507;29;20066;-87
2021/08/06 06:05:59;;;;;;;8.98;6.20;;;17.70;91.20;;;;;;4825642;29;20080;-88
2021/08/06 06:08:26;;;;;;;9.18;6.40;;;17.70;91.10;;;;;;4824809;29;20058;-88
2021/08/06 06:10:53;;;;;;;10.27;7.13;;;17.80;91.00;;;;;;4825568;29;20059;-88
2021/08/06 06:13:19;;;;;;;10.02;6.78;;;17.80;91.10;;;;;;4825530;29;20446;-88
2021/08/06 06:15:44;;;;;;;11.00;6.78;;;17.80;91.20;;;;;;4824718;29;20511;-88
2021/08/06 06:18:11;;;;;;;11.50;6.63;;;17.80;91.20;;;;;;4825469;29;20492;-87
2021/08/06 06:20:37;;;;;;;14.00;6.80;;;17.80;91.00;;;;;;4824695;29;20053;-87
2021/08/06 06:23:03;;;;;;;9.75;6.95;;;17.90;91.20;;;;;;4825630;29;20058;-88
2021/08/06 06:25:29;;;;;;;8.85;6.50;;;17.90;91.30;;;;;;4825170;29;20125;-87
2021/08/06 06:27:58;;;;;;;7.65;5.75;;;17.90;91.20;;;;;;4824925;29;20138;-87
2021/08/06 06:30:27;;;;;;;8.23;6.65;;;17.90;91.00;;;;;;4825450;29;20452;-89
2021/08/06 06:32:54;;;;;;;8.80;6.90;;;17.90;91.10;;;;;;4825638;29;20058;-88
2021/08/06 06:35:21;;;;;;;9.73;6.72;;;17.90;91.30;;;;;;4825114;29;20074;-89
2021/08/06 06:37:47;;;;;;;9.27;6.80;;;17.90;91.40;;;;;;4828628;29;20054;-88
2021/08/06 06:40:14;;;;;;;8.48;6.72;;;17.90;91.40;;;;;;4828410;29;20061;-89
2021/08/06 06:42:39;;;;;;;11.02;6.90;;;18.00;91.50;;;;;;4827840;29;20500;-88
2021/08/06 06:45:06;;;;;;;12.20;6.55;;;18.00;91.60;;;;;;4828842;29;20056;-88
2021/08/06 06:47:37;;;;;;;9.50;6.25;;;18.00;91.80;;;;;;4828592;29;20087;-89
2021/08/06 06:50:04;;;;;;;12.88;7.07;;;18.00;91.60;;;;;;4827831;29;20201;-89
2021/08/06 06:52:30;;;;;;;8.75;7.05;;;18.00;91.80;;;;;;4828013;29;20416;-90
2021/08/06 06:54:56;;;;;;;7.93;6.50;;;18.00;91.80;;;;;;4828239;29;20055;-88
2021/08/06 06:57:22;;;;;;;9.45;7.53;;;18.00;91.90;;;;;;4827333;29;20050;-88
2021/08/06 06:59:47;;;;;;;10.63;6.32;;;18.00;92.10;;;;;;4828650;29;20058;-88
2021/08/06 07:02:13;;;;;;;10.20;6.38;;;18.00;92.00;;;;;;4828332;29;20483;-89
2021/08/06 07:04:38;;;;;;;10.98;7.25;;;18.10;92.10;;;;;;4827374;29;20050;-87
2021/08/06 07:07:04;;;;;;;11.00;7.50;;;18.00;92.30;;;;;;4827821;29;20058;-87
2021/08/06 07:09:30;;;;;;;8.15;6.43;;;18.10;92.50;;;;;;4827987;29;20050;-88
2021/08/06 07:11:55;;;;;;;8.25;6.38;;;18.10;92.40;;;;;;4827514;29;20054;-87
2021/08/06 07:14:24;;;;;;;8.00;5.78;;;18.10;92.40;;;;;;4827620;29;20054;-86
2021/08/06 07:16:49;;;;;;;7.90;5.40;;;18.00;92.40;;;;;;4826802;29;20496;-86
2021/08/06 07:19:15;;;;;;;7.68;5.57;;;18.00;92.10;;;;;;4827601;29;20137;-87
2021/08/06 07:21:45;;;;;;;8.82;5.55;;;18.10;92.30;;;;;;4827377;29;20054;-85
2021/08/06 07:24:11;;;;;;;7.40;5.60;;;18.10;92.30;;;;;;4826194;29;20522;-83
2021/08/06 07:26:36;;;;;;;8.43;5.50;;;18.00;92.40;;;;;;4827220;29;20050;-85
2021/08/06 07:29:02;;;;;;;7.68;5.05;;;18.10;92.60;;;;;;4827206;29;20050;-85
2021/08/06 07:31:28;;;;;;;7.88;5.63;;;18.10;92.60;;;;;;4826386;29;20073;-85
2021/08/06 07:33:54;;;;;;;7.55;5.05;;;18.10;92.70;;;;;;4827181;29;20051;-85
2021/08/06 07:36:19;;;;;;;8.00;5.10;;;18.10;92.80;;;;;;4827277;29;20058;-86
2021/08/06 07:38:45;;;;;;;8.27;5.07;;;18.10;93.00;;;;;;4826346;29;20118;-86
2021/08/06 07:41:11;;;;;;;6.75;4.68;;;18.20;93.40;;;;;;4827038;29;20480;-86
2021/08/06 07:43:36;;;;;;;6.97;4.70;;;18.20;93.40;;;;;;4827624;29;20082;-86
2021/08/06 07:46:02;;;;;;;6.47;4.70;;;18.20;93.50;;;;;;4826524;29;20125;-86
2021/08/06 07:48:27;;;;;;;6.95;4.30;;;18.30;93.60;;;;;;4826630;29;20468;-87
2021/08/06 07:50:53;;;;;;;6.05;4.57;;;18.30;93.30;;;;;;4827443;29;20073;-87
2021/08/06 07:53:19;;;;;;;7.55;4.82;;;18.30;93.30;;;;;;4826290;29;20074;-87
2021/08/06 07:55:44;;;;;;;8.45;4.45;;;18.30;93.30;;;;;;4826661;29;20050;-86
2021/08/06 07:58:10;;;;;;;6.40;4.68;;;18.40;93.40;;;;;;4826558;29;20141;-84
2021/08/06 08:00:36;;;;;;;9.45;5.03;;;18.40;93.60;;;;;;4825565;29;20046;-85
2021/08/06 08:03:01;;;;;;;6.63;4.47;;;18.40;93.50;;;;;;4826527;29;20508;-84
2021/08/06 08:05:27;;;;;;;7.70;5.07;;;18.40;93.10;;;;;;4826357;29;20050;-84
2021/08/06 08:07:53;;;;;;;7.05;4.82;;;18.40;93.40;;;;;;4825845;29;20140;-85
2021/08/06 08:10:19;;;;;;;7.20;4.63;;;18.40;93.50;;;;;;4826455;29;20381;-84
2021/08/06 08:12:46;;;;;;;6.68;3.90;;;18.40;93.60;;;;;;4825944;29;20071;-83
2021/08/06 08:15:12;;;;;;;7.43;4.68;;;18.40;93.30;;;;;;4825205;29;20487;-83
2021/08/06 08:17:37;;;;;;;5.78;4.13;;;18.40;93.40;;;;;;4825833;29;20055;-82
2021/08/06 08:20:05;;;;;;;6.40;4.25;;;18.40;93.30;;;;;;4824919;29;20083;-84
2021/08/06 08:22:31;;;;;;;8.50;4.70;;;18.40;93.50;;;;;;4826125;29;20115;-83
2021/08/06 08:24:57;;;;;;;7.38;4.53;;;18.40;93.40;;;;;;4825855;29;20054;-84
2021/08/06 08:27:23;;;;;;;7.03;3.92;;;18.40;93.40;;;;;;4825501;29;20054;-84
2021/08/06 08:29:48;;;;;;;5.78;4.07;;;18.40;93.20;;;;;;4826023;29;20054;-84
2021/08/06 08:32:16;;;;;;;5.57;3.85;;;18.40;93.20;;;;;;4825807;29;20054;-83
2021/08/06 08:34:42;;;;;;;5.63;3.88;;;18.40;93.30;;;;;;4824887;29;20465;-85
2021/08/06 08:37:08;;;;;;;7.38;4.47;;;18.40;93.10;;;;;;4825797;29;20051;-84
2021/08/06 08:39:35;;;;;;;5.75;3.67;;;18.50;93.50;;;;;;4825423;29;20070;-85
2021/08/06 08:42:02;;;;;;;6.22;4.47;;;18.50;93.30;;;;;;4825025;29;20058;-85
2021/08/06 08:44:38;;;;;;;5.35;3.88;;;18.50;93.30;;;;;;4825973;29;20488;-86
2021/08/06 08:47:05;;;;;;;6.35;4.30;;;18.50;93.40;;;;;;4825922;29;20424;-86
2021/08/06 08:49:35;;;;;;;6.05;4.10;;;18.50;93.30;;;;;;4825294;29;20077;-85
2021/08/06 08:52:01;;;;;;;6.10;4.30;;;18.50;93.40;;;;;;4825876;29;20107;-84
2021/08/06 08:54:27;;;;;;;7.05;4.00;;;18.50;93.60;;;;;;4825432;29;20081;-84
2021/08/06 08:56:53;;;;;;;4.90;3.25;;;18.50;93.40;;;;;;4824851;29;20050;-83
2021/08/06 08:59:19;;;;;;;6.65;4.03;;;18.50;93.10;;;;;;4824313;29;20106;-84
2021/08/06 09:01:45;;;;;;;7.00;3.83;;;18.50;93.30;;;;;;4825402;29;20051;-84
2021/08/06 09:04:21;;;;;;;6.20;3.55;;;18.50;93.20;;;;;;4824559;29;20058;-84
2021/08/06 09:06:48;;;;;;;5.90;3.70;;;18.50;92.90;;;;;;4825169;29;20051;-84
2021/08/06 09:09:21;;;;;;;5.78;3.50;;;18.50;92.90;;;;;;4824976;29;20124;-86
2021/08/06 09:12:02;;;;;;;6.25;3.80;;;18.50;93.00;;;;;;4825427;29;20107;-85
2021/08/06 09:14:30;;;;;;;6.15;4.05;;;18.60;93.20;;;;;;4826234;29;20054;-85
2021/08/06 09:17:10;;;;;;;5.18;3.20;;;18.60;93.20;;;;;;4824688;29;20500;-86
2021/08/06 09:19:38;;;;;;;6.35;3.75;;;18.60;92.80;;;;;;4825486;29;20143;-86
2021/08/06 09:22:24;;;;;;;5.20;3.55;;;18.60;93.00;;;;;;4825376;29;20062;-86
2021/08/06 09:25:12;;;;;;;6.75;4.20;;;18.70;93.00;;;;;;4824494;29;20054;-87
2021/08/06 09:27:47;;;;;;;5.88;3.78;;;18.70;93.50;;;;;;4825422;29;20059;-86
2021/08/06 09:30:24;;;;;;;7.30;3.33;;;18.70;93.50;;;;;;4825890;29;20061;-85
2021/08/06 09:32:54;;;;;;;5.70;3.50;;;18.70;93.60;;;;;;4825242;29;20126;-86
2021/08/06 09:35:23;;;;;;;5.80;3.67;;;18.70;93.60;;;;;;4825134;29;20141;-85
2021/08/06 09:37:49;;;;;;;7.55;3.45;;;18.80;93.80;;;;;;4824490;29;20054;-84
2021/08/06 09:40:24;;;;;;;5.05;3.40;;;18.80;94.00;;;;;;4824919;29;20059;-85
2021/08/06 09:42:53;;;;;;;4.75;3.63;;;18.90;94.30;;;;;;4824807;29;20526;-86
2021/08/06 09:45:21;;;;;;;5.18;3.40;;;18.90;94.60;;;;;;4824320;29;20046;-85
2021/08/06 09:47:55;;;;;;;4.35;2.97;;;19.00;94.80;;;;;;4824921;29;20050;-84
2021/08/06 09:50:47;;;;;;;6.13;3.20;;;19.10;94.80;;;;;;4824921;29;20410;-85
2021/08/06 09:53:14;;;;;;;7.30;2.80;;;19.20;94.60;;;;;;4824236;29;20500;-85
2021/08/06 09:55:43;;;;;;;5.45;3.00;;;19.30;94.60;;;;;;4824991;29;20107;-85
2021/08/06 09:58:12;;;;;;;5.03;2.67;;;19.40;94.60;;;;;;4824907;29;20137;-85
2021/08/06 10:00:40;;;;;;;4.75;2.92;;;19.50;94.20;;;;;;4824463;29;20110;-85
2021/08/06 10:03:05;;;;;;;5.00;3.03;;;19.50;93.90;;;;;;4825094;29;20055;-86
2021/08/06 10:05:32;;;;;;;7.55;3.10;;;19.50;93.80;;;;;;4824236;29;20054;-85
2021/08/06 10:08:01;;;;;;;4.68;2.97;;;19.60;93.70;;;;;;4824867;29;20098;-85
2021/08/06 10:10:53;;;;;;;4.40;2.95;;;19.70;93.70;;;;;;4825306;29;20054;-85
2021/08/06 10:13:23;;;;;;;4.75;2.92;;;19.80;93.40;;;;;;4830153;29;20514;-85
2021/08/06 10:15:48;;;;;;;6.80;2.80;;;19.90;93.20;;;;;;4828565;29;20548;-85
2021/08/06 10:18:14;;;;;;;6.70;3.38;;;20.00;93.40;;;;;;4828096;29;20066;-84
2021/08/06 10:20:40;;;;;;;4.95;2.70;;;20.00;92.90;;;;;;4827421;29;20058;-86
2021/08/06 10:23:05;;;;;;;5.97;2.70;;;20.00;92.60;;;;;;4828199;29;20065;-84
2021/08/06 10:25:32;;;;;;;5.10;3.28;;;20.10;92.50;;;;;;4828149;29;20138;-83
2021/08/06 10:27:58;;;;;;;5.75;2.95;;;20.10;92.60;;;;;;4827203;29;20518;-84
2021/08/06 10:30:32;;;;;;;6.25;3.17;;;20.20;92.70;;;;;;4828035;29;20066;-85
2021/08/06 10:33:20;;;;;;;6.00;3.05;;;20.30;92.50;;;;;;4827996;29;20059;-84
2021/08/06 10:35:53;;;;;;;5.80;2.90;;;20.30;92.10;;;;;;4827068;29;20054;-84
2021/08/06 10:38:43;;;;;;;4.70;2.60;;;20.40;92.00;;;;;;4827462;29;20073;-84
2021/08/06 10:41:14;;;;;;;5.53;2.63;;;20.50;91.60;;;;;;4826945;29;20050;-85
2021/08/06 10:43:59;;;;;;;4.15;2.45;;;20.50;91.60;;;;;;4827767;29;20065;-84
2021/08/06 10:46:26;;;;;;;4.45;2.42;;;20.60;91.50;;;;;;4827918;29;20054;-83
2021/08/06 10:48:55;;;;;;;7.20;2.55;;;20.60;91.20;;;;;;4826609;29;20051;-83
2021/08/06 10:51:24;;;;;;;4.40;2.42;;;20.70;90.90;;;;;;4827757;29;20058;-84
2021/08/06 10:53:56;;;;;;;4.82;2.80;;;20.70;90.80;;;;;;4827612;29;20056;-84
2021/08/06 10:56:24;;;;;;;4.35;2.60;;;20.70;90.80;;;;;;4827065;29;20051;-83
2021/08/06 10:58:51;;;;;;;7.43;2.40;;;20.70;90.80;;;;;;4826808;29;20058;-80
2021/08/06 11:01:26;;;;;;;5.22;1.95;;;20.80;90.60;;;;;;4827082;29;20458;-80
2021/08/06 11:03:56;;;;;;;4.20;1.80;;;20.70;90.00;;;;;;4826156;29;20495;-82
2021/08/06 11:06:38;;;;;;;4.78;1.90;;;20.60;90.00;;;;;;4827186;29;20097;-82
2021/08/06 11:09:08;;;;;;;5.00;1.98;;;20.50;90.10;;;;;;4826442;29;20068;-82
2021/08/06 11:11:42;;;;;;;3.65;1.90;;;20.40;90.50;;;;;;4827099;29;20062;-82
2021/08/06 11:14:09;;;;;;;4.82;2.25;;;20.40;91.00;;;;;;4827089;29;20184;-83
2021/08/06 11:16:35;;;;;;;5.00;3.10;;;20.40;91.00;;;;;;4826455;29;20074;-83
2021/08/06 11:19:01;;;;;;;5.90;3.28;;;20.50;91.50;;;;;;4826580;29;20086;-83
2021/08/06 11:21:39;;;;;;;6.55;2.85;;;20.60;91.80;;;;;;4827082;29;20054;-84
2021/08/06 11:24:05;;;;;;;6.20;3.83;;;20.60;91.70;;;;;;4825382;29;20127;-83
2021/08/06 11:26:30;;;;;;;6.28;4.55;;;20.70;91.70;;;;;;4826845;29;20088;-83
2021/08/06 11:29:11;;;;;;;8.50;4.35;;;20.80;92.30;;;;;;4827050;29;20057;-83
2021/08/06 11:31:36;;;;;;;6.93;3.85;;;20.90;92.30;;;;;;4826499;29;20066;-84
2021/08/06 11:34:06;;;;;;;6.88;3.88;;;21.00;91.90;;;;;;4827021;29;20054;-84
2021/08/06 11:36:34;;;;;;;7.93;4.20;;;21.10;91.40;;;;;;4826993;29;20062;-85
2021/08/06 11:39:12;;;;;;;6.75;3.88;;;21.30;91.40;;;;;;4825734;29;20600;-85
2021/08/06 11:41:49;;;;;;;9.02;3.55;;;21.40;91.30;;;;;;4827104;29;20070;-85
2021/08/06 11:44:15;;;;;;;5.22;2.85;;;21.50;90.40;;;;;;4826233;29;20101;-84
2021/08/06 11:46:48;;;;;;;5.45;2.83;;;21.60;89.90;;;;;;4827103;29;20050;-84
2021/08/06 11:49:14;;;;;;;5.72;2.95;;;21.60;88.20;;;;;;4826779;29;20133;-84
2021/08/06 11:51:47;;;;;;;6.82;2.60;;;21.70;88.10;;;;;;4826012;29;20154;-83
2021/08/06 11:54:12;;;;;;;5.30;2.60;;;21.70;88.00;;;;;;4826738;29;20054;-84
2021/08/06 11:56:38;;;;;;;6.32;2.88;;;21.70;87.40;;;;;;4826568;29;20162;-85
2021/08/06 11:59:08;;;;;;;7.22;3.92;;;21.70;87.40;;;;;;4826000;29;20482;-85
2021/08/06 12:01:34;;;;;;;6.32;3.20;;;21.70;87.60;;;;;;4826668;29;20058;-85
2021/08/06 12:04:00;;;;;;;5.93;3.13;;;21.60;87.50;;;;;;4826804;29;20150;-84
2021/08/06 12:06:25;;;;;;;6.32;3.10;;;21.60;88.20;;;;;;4825985;29;20121;-85
2021/08/06 12:08:53;;;;;;;7.07;3.38;;;21.60;88.60;;;;;;4826724;29;20145;-85
2021/08/06 12:11:21;;;;;;;7.05;4.22;;;21.50;88.90;;;;;;4826668;29;20050;-85
2021/08/06 12:13:49;;;;;;;7.60;3.67;;;21.50;89.70;;;;;;4826037;29;20054;-85
2021/08/06 12:16:24;;;;;;;6.50;3.08;;;21.50;89.80;;;;;;4826373;29;20129;-86
2021/08/06 12:18:53;;;;;;;7.97;3.38;;;21.50;89.70;;;;;;4826663;29;20062;-84
2021/08/06 12:21:22;;;;;;;6.00;3.38;;;21.50;89.90;;;;;;4825483;29;20057;-85
2021/08/06 12:23:57;;;;;;;6.65;3.55;;;21.60;89.80;;;;;;4826422;29;20054;-84
2021/08/06 12:26:43;;;;;;;9.20;4.38;;;21.60;89.70;;;;;;4825746;29;20054;-85
2021/08/06 12:29:20;;;;;;;9.55;4.00;;;21.60;89.10;;;;;;4826506;29;20111;-86
2021/08/06 12:31:47;;;;;;;5.43;3.30;;;21.60;88.60;;;;;;4826365;29;20054;-85
2021/08/06 12:34:14;;;;;;;6.47;3.67;;;21.60;89.10;;;;;;4825226;29;20062;-86
2021/08/06 12:36:55;;;;;;;6.63;3.13;;;21.60;88.60;;;;;;4826374;29;20122;-85
2021/08/06 12:39:23;;;;;;;9.70;3.20;;;21.60;87.50;;;;;;4825782;29;20102;-87
2021/08/06 12:41:50;;;;;;;6.93;3.63;;;21.60;87.80;;;;;;4825353;29;20050;-85
2021/08/06 12:44:25;;;;;;;6.07;3.28;;;21.60;87.80;;;;;;4825975;29;20106;-84
2021/08/06 12:47:16;;;;;;;5.28;3.00;;;21.60;88.40;;;;;;4826162;29;20066;-84
2021/08/06 12:49:53;;;;;;;6.20;3.45;;;21.70;87.80;;;;;;4825818;29;20064;-84
2021/08/06 12:52:37;;;;;;;7.30;3.22;;;21.70;87.90;;;;;;4825869;29;20051;-85